sensor_id;sensor_type;location;lat;lon;timestamp;P1;durP1;ratioP1;P2;durP2;ratioP2
8213;SDS011;4148;47.974;7.824;2023-04-01T00:01:55;1.30;;;0.70;;
8213;SDS011;4148;47.974;7.824;2023-04-01T00:04:23;2.03;;;0.60;;
8213;SDS011;4148;47.974;7.824;2023-04-01T00:06:51;2.13;;;0.90;;
8213;SDS011;4148;47.974;7.824;2023-04-01T00:09:19;1.43;;;0.80;;
8213;SDS011;4148;47.974;7.824;2023-04-01T00:11:47;2.50;;;0.70;;
8213;SDS011;4148;47.974;7.824;2023-04-01T00:14:15;1.30;;;0.60;;
8213;SDS011;4148;47.974;7.824;2023-04-01T00:16:43;1.97;;;0.70;;
8213;SDS011;4148;47.974;7.824;2023-04-01T00:19:12;1.30;;;0.50;;
8213;SDS011;4148;47.974;7.824;2023-04-01T00:21:41;1.93;;;0.60;;
8213;SDS011;4148;47.974;7.824;2023-04-01T00:24:08;1.20;;;0.53;;
8213;SDS011;4148;47.974;7.824;2023-04-01T00:26:36;1.50;;;0.67;;
8213;SDS011;4148;47.974;7.824;2023-04-01T00:29:04;1.30;;;0.60;;
8213;SDS011;4148;47.974;7.824;2023-04-01T00:31:33;1.50;;;0.60;;
8213;SDS011;4148;47.974;7.824;2023-04-01T00:34:01;2.83;;;1.07;;
8213;SDS011;4148;47.974;7.824;2023-04-01T00:36:30;2.60;;;1.10;;
8213;SDS011;4148;47.974;7.824;2023-04-01T00:38:58;3.50;;;1.20;;
8213;SDS011;4148;47.974;7.824;2023-04-01T00:41:26;4.37;;;1.03;;
8213;SDS011;4148;47.974;7.824;2023-04-01T00:46:45;3.83;;;1.10;;
8213;SDS011;4148;47.974;7.824;2023-04-01T00:49:13;6.20;;;1.20;;
8213;SDS011;4148;47.974;7.824;2023-04-01T00:51:44;5.43;;;1.63;;
8213;SDS011;4148;47.974;7.824;2023-04-01T00:54:14;6.47;;;1.63;;
8213;SDS011;4148;47.974;7.824;2023-04-01T00:56:45;3.60;;;1.20;;
8213;SDS011;4148;47.974;7.824;2023-04-01T00:59:23;4.40;;;1.20;;
8213;SDS011;4148;47.974;7.824;2023-04-01T01:01:52;4.90;;;1.70;;
8213;SDS011;4148;47.974;7.824;2023-04-01T01:04:21;6.50;;;1.33;;
8213;SDS011;4148;47.974;7.824;2023-04-01T01:06:54;2.73;;;1.43;;
8213;SDS011;4148;47.974;7.824;2023-04-01T01:09:32;3.93;;;1.80;;
8213;SDS011;4148;47.974;7.824;2023-04-01T01:12:10;6.70;;;1.40;;
8213;SDS011;4148;47.974;7.824;2023-04-01T01:17:32;7.30;;;1.53;;
8213;SDS011;4148;47.974;7.824;2023-04-01T01:25:58;6.57;;;1.87;;
8213;SDS011;4148;47.974;7.824;2023-04-01T01:28:40;9.37;;;1.70;;
8213;SDS011;4148;47.974;7.824;2023-04-01T01:31:19;3.93;;;1.30;;
8213;SDS011;4148;47.974;7.824;2023-04-01T01:33:57;3.87;;;1.60;;
8213;SDS011;4148;47.974;7.824;2023-04-01T01:36:32;5.53;;;1.77;;
8213;SDS011;4148;47.974;7.824;2023-04-01T01:39:01;8.77;;;2.70;;
8213;SDS011;4148;47.974;7.824;2023-04-01T01:41:32;12.37;;;2.47;;
8213;SDS011;4148;47.974;7.824;2023-04-01T01:44:04;11.47;;;1.93;;
8213;SDS011;4148;47.974;7.824;2023-04-01T01:46:35;10.93;;;2.20;;
8213;SDS011;4148;47.974;7.824;2023-04-01T01:49:05;6.73;;;1.70;;
8213;SDS011;4148;47.974;7.824;2023-04-01T01:51:37;13.20;;;2.10;;
8213;SDS011;4148;47.974;7.824;2023-04-01T01:54:06;10.20;;;2.30;;
8213;SDS011;4148;47.974;7.824;2023-04-01T01:56:33;8.90;;;2.00;;
8213;SDS011;4148;47.974;7.824;2023-04-01T01:59:02;6.53;;;1.90;;
8213;SDS011;4148;47.974;7.824;2023-04-01T02:01:35;11.83;;;1.97;;
8213;SDS011;4148;47.974;7.824;2023-04-01T02:04:07;6.90;;;2.20;;
8213;SDS011;4148;47.974;7.824;2023-04-01T02:06:36;6.60;;;1.70;;
8213;SDS011;4148;47.974;7.824;2023-04-01T02:09:09;9.47;;;2.30;;
8213;SDS011;4148;47.974;7.824;2023-04-01T02:11:39;6.87;;;2.00;;
8213;SDS011;4148;47.974;7.824;2023-04-01T02:14:11;6.77;;;2.20;;
8213;SDS011;4148;47.974;7.824;2023-04-01T02:16:43;10.90;;;1.80;;
8213;SDS011;4148;47.974;7.824;2023-04-01T02:19:14;8.17;;;1.70;;
8213;SDS011;4148;47.974;7.824;2023-04-01T02:21:50;8.00;;;1.83;;
8213;SDS011;4148;47.974;7.824;2023-04-01T02:24:24;8.73;;;2.00;;
8213;SDS011;4148;47.974;7.824;2023-04-01T02:26:55;6.13;;;2.03;;
8213;SDS011;4148;47.974;7.824;2023-04-01T02:29:23;8.60;;;1.90;;
8213;SDS011;4148;47.974;7.824;2023-04-01T02:31:52;5.40;;;1.97;;
8213;SDS011;4148;47.974;7.824;2023-04-01T02:34:22;5.43;;;1.50;;
8213;SDS011;4148;47.974;7.824;2023-04-01T02:36:52;8.60;;;2.20;;
8213;SDS011;4148;47.974;7.824;2023-04-01T02:39:22;10.20;;;1.63;;
8213;SDS011;4148;47.974;7.824;2023-04-01T02:41:51;7.00;;;2.07;;
8213;SDS011;4148;47.974;7.824;2023-04-01T02:44:20;9.90;;;2.20;;
8213;SDS011;4148;47.974;7.824;2023-04-01T02:46:47;8.00;;;2.10;;
8213;SDS011;4148;47.974;7.824;2023-04-01T02:49:15;2.67;;;1.30;;
8213;SDS011;4148;47.974;7.824;2023-04-01T02:51:43;5.33;;;1.50;;
8213;SDS011;4148;47.974;7.824;2023-04-01T02:54:12;4.60;;;1.90;;
8213;SDS011;4148;47.974;7.824;2023-04-01T02:56:40;7.37;;;1.53;;
8213;SDS011;4148;47.974;7.824;2023-04-01T02:59:08;8.67;;;1.63;;
8213;SDS011;4148;47.974;7.824;2023-04-01T03:01:36;8.30;;;2.13;;
8213;SDS011;4148;47.974;7.824;2023-04-01T03:04:04;10.53;;;2.80;;
8213;SDS011;4148;47.974;7.824;2023-04-01T03:06:32;12.17;;;1.97;;
8213;SDS011;4148;47.974;7.824;2023-04-01T03:09:00;8.50;;;2.00;;
8213;SDS011;4148;47.974;7.824;2023-04-01T03:11:30;6.83;;;2.00;;
8213;SDS011;4148;47.974;7.824;2023-04-01T03:13:57;8.60;;;2.03;;
8213;SDS011;4148;47.974;7.824;2023-04-01T03:16:25;9.50;;;1.80;;
8213;SDS011;4148;47.974;7.824;2023-04-01T03:18:53;10.60;;;2.00;;
8213;SDS011;4148;47.974;7.824;2023-04-01T03:21:23;8.00;;;2.00;;
8213;SDS011;4148;47.974;7.824;2023-04-01T03:23:51;6.20;;;1.90;;
8213;SDS011;4148;47.974;7.824;2023-04-01T03:26:19;11.70;;;2.30;;
8213;SDS011;4148;47.974;7.824;2023-04-01T03:28:49;8.70;;;1.70;;
8213;SDS011;4148;47.974;7.824;2023-04-01T03:31:16;6.57;;;1.70;;
8213;SDS011;4148;47.974;7.824;2023-04-01T03:33:47;11.77;;;1.70;;
8213;SDS011;4148;47.974;7.824;2023-04-01T03:36:15;5.07;;;1.37;;
8213;SDS011;4148;47.974;7.824;2023-04-01T03:38:43;5.80;;;1.60;;
8213;SDS011;4148;47.974;7.824;2023-04-01T03:41:12;3.73;;;1.00;;
8213;SDS011;4148;47.974;7.824;2023-04-01T03:43:40;3.30;;;1.40;;
8213;SDS011;4148;47.974;7.824;2023-04-01T03:46:10;2.40;;;1.07;;
8213;SDS011;4148;47.974;7.824;2023-04-01T03:48:38;3.70;;;1.20;;
8213;SDS011;4148;47.974;7.824;2023-04-01T03:51:06;5.13;;;1.50;;
8213;SDS011;4148;47.974;7.824;2023-04-01T03:53:34;2.20;;;0.90;;
8213;SDS011;4148;47.974;7.824;2023-04-01T03:56:03;7.83;;;1.20;;
8213;SDS011;4148;47.974;7.824;2023-04-01T03:58:32;4.50;;;1.20;;
8213;SDS011;4148;47.974;7.824;2023-04-01T04:00:59;4.27;;;1.60;;
8213;SDS011;4148;47.974;7.824;2023-04-01T04:03:29;11.60;;;1.40;;
8213;SDS011;4148;47.974;7.824;2023-04-01T04:05:57;6.30;;;1.13;;
8213;SDS011;4148;47.974;7.824;2023-04-01T04:08:24;5.23;;;1.23;;
8213;SDS011;4148;47.974;7.824;2023-04-01T04:10:55;5.90;;;1.63;;
8213;SDS011;4148;47.974;7.824;2023-04-01T04:13:23;3.87;;;1.20;;
8213;SDS011;4148;47.974;7.824;2023-04-01T04:15:51;7.97;;;1.30;;
8213;SDS011;4148;47.974;7.824;2023-04-01T04:18:19;5.33;;;1.10;;
8213;SDS011;4148;47.974;7.824;2023-04-01T04:20:48;4.50;;;1.07;;
8213;SDS011;4148;47.974;7.824;2023-04-01T04:23:17;5.20;;;2.33;;
8213;SDS011;4148;47.974;7.824;2023-04-01T04:25:52;5.33;;;1.00;;
8213;SDS011;4148;47.974;7.824;2023-04-01T04:28:21;3.50;;;1.20;;
8213;SDS011;4148;47.974;7.824;2023-04-01T04:30:49;6.07;;;1.70;;
8213;SDS011;4148;47.974;7.824;2023-04-01T04:33:17;3.93;;;1.37;;
8213;SDS011;4148;47.974;7.824;2023-04-01T04:35:47;3.10;;;1.00;;
8213;SDS011;4148;47.974;7.824;2023-04-01T04:38:15;6.17;;;1.60;;
8213;SDS011;4148;47.974;7.824;2023-04-01T04:40:43;4.00;;;1.40;;
8213;SDS011;4148;47.974;7.824;2023-04-01T04:43:12;3.30;;;1.20;;
8213;SDS011;4148;47.974;7.824;2023-04-01T04:45:40;6.37;;;1.33;;
8213;SDS011;4148;47.974;7.824;2023-04-01T04:48:09;4.50;;;1.47;;
8213;SDS011;4148;47.974;7.824;2023-04-01T04:50:39;5.27;;;1.30;;
8213;SDS011;4148;47.974;7.824;2023-04-01T04:53:10;9.20;;;1.77;;
8213;SDS011;4148;47.974;7.824;2023-04-01T04:55:42;3.40;;;1.57;;
8213;SDS011;4148;47.974;7.824;2023-04-01T04:58:10;5.77;;;1.30;;
8213;SDS011;4148;47.974;7.824;2023-04-01T05:00:38;9.00;;;1.50;;
8213;SDS011;4148;47.974;7.824;2023-04-01T05:03:06;6.13;;;1.13;;
8213;SDS011;4148;47.974;7.824;2023-04-01T05:05:34;4.80;;;1.53;;
8213;SDS011;4148;47.974;7.824;2023-04-01T05:08:02;7.40;;;1.50;;
8213;SDS011;4148;47.974;7.824;2023-04-01T05:10:31;4.67;;;1.30;;
8213;SDS011;4148;47.974;7.824;2023-04-01T05:12:59;5.73;;;1.50;;
8213;SDS011;4148;47.974;7.824;2023-04-01T05:15:27;5.00;;;1.30;;
8213;SDS011;4148;47.974;7.824;2023-04-01T05:17:55;5.43;;;1.23;;
8213;SDS011;4148;47.974;7.824;2023-04-01T05:20:23;6.83;;;1.30;;
8213;SDS011;4148;47.974;7.824;2023-04-01T05:22:55;4.17;;;1.37;;
8213;SDS011;4148;47.974;7.824;2023-04-01T05:25:23;4.13;;;1.17;;
8213;SDS011;4148;47.974;7.824;2023-04-01T05:27:52;8.17;;;1.77;;
8213;SDS011;4148;47.974;7.824;2023-04-01T05:30:20;4.53;;;1.10;;
8213;SDS011;4148;47.974;7.824;2023-04-01T05:32:48;7.27;;;1.50;;
8213;SDS011;4148;47.974;7.824;2023-04-01T05:35:16;4.33;;;1.33;;
8213;SDS011;4148;47.974;7.824;2023-04-01T05:37:43;3.47;;;1.67;;
8213;SDS011;4148;47.974;7.824;2023-04-01T05:40:11;7.30;;;1.80;;
8213;SDS011;4148;47.974;7.824;2023-04-01T05:42:39;4.27;;;1.00;;
8213;SDS011;4148;47.974;7.824;2023-04-01T05:45:09;6.53;;;1.17;;
8213;SDS011;4148;47.974;7.824;2023-04-01T05:47:37;3.10;;;1.00;;
8213;SDS011;4148;47.974;7.824;2023-04-01T05:50:05;4.83;;;1.20;;
8213;SDS011;4148;47.974;7.824;2023-04-01T05:52:33;5.83;;;1.80;;
8213;SDS011;4148;47.974;7.824;2023-04-01T05:55:01;4.50;;;1.10;;
8213;SDS011;4148;47.974;7.824;2023-04-01T05:57:29;4.50;;;1.40;;
8213;SDS011;4148;47.974;7.824;2023-04-01T05:59:58;3.83;;;1.40;;
8213;SDS011;4148;47.974;7.824;2023-04-01T06:02:28;2.77;;;0.97;;
8213;SDS011;4148;47.974;7.824;2023-04-01T06:04:59;4.07;;;1.40;;
8213;SDS011;4148;47.974;7.824;2023-04-01T06:07:37;6.50;;;1.37;;
8213;SDS011;4148;47.974;7.824;2023-04-01T06:10:09;4.40;;;1.30;;
8213;SDS011;4148;47.974;7.824;2023-04-01T06:12:41;2.50;;;0.80;;
8213;SDS011;4148;47.974;7.824;2023-04-01T06:15:18;5.43;;;2.00;;
8213;SDS011;4148;47.974;7.824;2023-04-01T06:21:18;4.70;;;1.37;;
8213;SDS011;4148;47.974;7.824;2023-04-01T06:24:01;2.67;;;0.80;;
8213;SDS011;4148;47.974;7.824;2023-04-01T06:26:39;2.83;;;0.93;;
8213;SDS011;4148;47.974;7.824;2023-04-01T06:32:17;4.70;;;1.00;;
8213;SDS011;4148;47.974;7.824;2023-04-01T06:34:55;4.73;;;1.30;;
8213;SDS011;4148;47.974;7.824;2023-04-01T06:37:43;2.07;;;1.13;;
8213;SDS011;4148;47.974;7.824;2023-04-01T06:40:42;2.97;;;1.17;;
8213;SDS011;4148;47.974;7.824;2023-04-01T06:43:21;4.40;;;0.90;;
8213;SDS011;4148;47.974;7.824;2023-04-01T06:45:53;2.43;;;1.00;;
8213;SDS011;4148;47.974;7.824;2023-04-01T06:48:33;2.73;;;0.80;;
8213;SDS011;4148;47.974;7.824;2023-04-01T06:51:12;2.53;;;0.90;;
8213;SDS011;4148;47.974;7.824;2023-04-01T06:53:53;1.73;;;0.80;;
8213;SDS011;4148;47.974;7.824;2023-04-01T06:56:26;5.10;;;1.37;;
8213;SDS011;4148;47.974;7.824;2023-04-01T06:58:57;3.30;;;1.23;;
8213;SDS011;4148;47.974;7.824;2023-04-01T07:01:29;1.67;;;0.80;;
8213;SDS011;4148;47.974;7.824;2023-04-01T07:04:02;2.57;;;1.00;;
8213;SDS011;4148;47.974;7.824;2023-04-01T07:06:35;2.30;;;0.80;;
8213;SDS011;4148;47.974;7.824;2023-04-01T07:09:09;2.33;;;0.90;;
8213;SDS011;4148;47.974;7.824;2023-04-01T07:11:41;2.43;;;0.90;;
8213;SDS011;4148;47.974;7.824;2023-04-01T07:14:12;3.70;;;1.10;;
8213;SDS011;4148;47.974;7.824;2023-04-01T07:16:45;5.27;;;1.43;;
8213;SDS011;4148;47.974;7.824;2023-04-01T07:19:18;6.90;;;1.50;;
8213;SDS011;4148;47.974;7.824;2023-04-01T07:21:51;4.93;;;1.07;;
8213;SDS011;4148;47.974;7.824;2023-04-01T07:24:25;2.33;;;0.90;;
8213;SDS011;4148;47.974;7.824;2023-04-01T07:26:55;2.83;;;1.00;;
8213;SDS011;4148;47.974;7.824;2023-04-01T07:29:24;3.60;;;1.97;;
8213;SDS011;4148;47.974;7.824;2023-04-01T07:34:51;3.07;;;1.07;;
8213;SDS011;4148;47.974;7.824;2023-04-01T07:37:30;4.13;;;1.37;;
8213;SDS011;4148;47.974;7.824;2023-04-01T07:40:08;3.87;;;1.37;;
8213;SDS011;4148;47.974;7.824;2023-04-01T07:42:49;4.23;;;1.10;;
8213;SDS011;4148;47.974;7.824;2023-04-01T07:45:25;5.10;;;1.30;;
8213;SDS011;4148;47.974;7.824;2023-04-01T07:48:02;2.90;;;1.10;;
8213;SDS011;4148;47.974;7.824;2023-04-01T07:50:37;5.50;;;1.33;;
8213;SDS011;4148;47.974;7.824;2023-04-01T07:53:16;2.10;;;0.90;;
8213;SDS011;4148;47.974;7.824;2023-04-01T07:55:53;2.87;;;1.40;;
8213;SDS011;4148;47.974;7.824;2023-04-01T07:58:29;3.03;;;1.33;;
8213;SDS011;4148;47.974;7.824;2023-04-01T08:01:05;1.80;;;1.10;;
8213;SDS011;4148;47.974;7.824;2023-04-01T08:03:45;2.53;;;1.40;;
8213;SDS011;4148;47.974;7.824;2023-04-01T08:06:24;2.90;;;1.30;;
8213;SDS011;4148;47.974;7.824;2023-04-01T08:09:00;4.77;;;1.20;;
8213;SDS011;4148;47.974;7.824;2023-04-01T08:11:41;1.93;;;0.87;;
8213;SDS011;4148;47.974;7.824;2023-04-01T08:14:21;1.97;;;0.77;;
8213;SDS011;4148;47.974;7.824;2023-04-01T08:16:57;2.10;;;0.87;;
8213;SDS011;4148;47.974;7.824;2023-04-01T08:19:31;3.47;;;0.90;;
8213;SDS011;4148;47.974;7.824;2023-04-01T08:22:14;2.33;;;1.00;;
8213;SDS011;4148;47.974;7.824;2023-04-01T08:24:45;3.40;;;1.70;;
8213;SDS011;4148;47.974;7.824;2023-04-01T08:27:17;4.47;;;0.90;;
8213;SDS011;4148;47.974;7.824;2023-04-01T08:29:51;3.77;;;1.10;;
8213;SDS011;4148;47.974;7.824;2023-04-01T08:32:25;3.40;;;1.20;;
8213;SDS011;4148;47.974;7.824;2023-04-01T08:34:58;3.73;;;0.90;;
8213;SDS011;4148;47.974;7.824;2023-04-01T08:37:36;3.23;;;0.80;;
8213;SDS011;4148;47.974;7.824;2023-04-01T08:40:12;2.80;;;1.10;;
8213;SDS011;4148;47.974;7.824;2023-04-01T08:42:59;2.40;;;0.87;;
8213;SDS011;4148;47.974;7.824;2023-04-01T08:45:40;2.23;;;1.10;;
8213;SDS011;4148;47.974;7.824;2023-04-01T08:48:35;2.07;;;0.93;;
8213;SDS011;4148;47.974;7.824;2023-04-01T08:54:13;4.03;;;2.80;;
8213;SDS011;4148;47.974;7.824;2023-04-01T08:56:59;2.70;;;1.20;;
8213;SDS011;4148;47.974;7.824;2023-04-01T09:02:46;2.03;;;1.00;;
8213;SDS011;4148;47.974;7.824;2023-04-01T09:08:32;1.83;;;1.33;;
8213;SDS011;4148;47.974;7.824;2023-04-01T09:11:17;2.80;;;1.00;;
8213;SDS011;4148;47.974;7.824;2023-04-01T09:14:03;2.97;;;1.13;;
8213;SDS011;4148;47.974;7.824;2023-04-01T09:16:53;2.00;;;0.90;;
8213;SDS011;4148;47.974;7.824;2023-04-01T09:19:40;2.50;;;0.90;;
8213;SDS011;4148;47.974;7.824;2023-04-01T09:22:39;2.23;;;1.00;;
8213;SDS011;4148;47.974;7.824;2023-04-01T09:28:12;3.70;;;1.30;;
8213;SDS011;4148;47.974;7.824;2023-04-01T09:30:48;3.03;;;1.33;;
8213;SDS011;4148;47.974;7.824;2023-04-01T09:36:38;2.03;;;1.10;;
8213;SDS011;4148;47.974;7.824;2023-04-01T09:39:17;4.97;;;1.10;;
8213;SDS011;4148;47.974;7.824;2023-04-01T09:42:06;7.53;;;1.40;;
8213;SDS011;4148;47.974;7.824;2023-04-01T09:44:44;2.23;;;0.93;;
8213;SDS011;4148;47.974;7.824;2023-04-01T09:47:23;8.50;;;1.30;;
8213;SDS011;4148;47.974;7.824;2023-04-01T09:50:16;1.73;;;0.80;;
8213;SDS011;4148;47.974;7.824;2023-04-01T09:52:57;2.57;;;1.00;;
8213;SDS011;4148;47.974;7.824;2023-04-01T09:55:41;1.57;;;0.80;;
8213;SDS011;4148;47.974;7.824;2023-04-01T09:58:50;3.00;;;1.37;;
8213;SDS011;4148;47.974;7.824;2023-04-01T10:04:50;3.90;;;1.73;;
8213;SDS011;4148;47.974;7.824;2023-04-01T10:11:03;2.20;;;1.07;;
8213;SDS011;4148;47.974;7.824;2023-04-01T10:17:06;2.87;;;0.90;;
8213;SDS011;4148;47.974;7.824;2023-04-01T10:19:58;2.63;;;1.00;;
8213;SDS011;4148;47.974;7.824;2023-04-01T10:22:54;1.77;;;0.80;;
8213;SDS011;4148;47.974;7.824;2023-04-01T10:25:34;1.90;;;0.90;;
8213;SDS011;4148;47.974;7.824;2023-04-01T10:31:38;2.83;;;1.10;;
8213;SDS011;4148;47.974;7.824;2023-04-01T10:34:45;1.37;;;0.80;;
8213;SDS011;4148;47.974;7.824;2023-04-01T10:40:49;2.63;;;1.10;;
8213;SDS011;4148;47.974;7.824;2023-04-01T10:46:36;4.30;;;1.20;;
8213;SDS011;4148;47.974;7.824;2023-04-01T10:59:00;3.43;;;1.17;;
8213;SDS011;4148;47.974;7.824;2023-04-01T11:01:56;1.93;;;0.90;;
8213;SDS011;4148;47.974;7.824;2023-04-01T11:04:55;2.10;;;1.00;;
8213;SDS011;4148;47.974;7.824;2023-04-01T11:17:16;1.83;;;0.83;;
8213;SDS011;4148;47.974;7.824;2023-04-01T11:20:05;4.93;;;1.00;;
8213;SDS011;4148;47.974;7.824;2023-04-01T11:22:53;1.70;;;0.90;;
8213;SDS011;4148;47.974;7.824;2023-04-01T11:25:54;1.50;;;0.80;;
8213;SDS011;4148;47.974;7.824;2023-04-01T11:28:51;3.30;;;1.30;;
8213;SDS011;4148;47.974;7.824;2023-04-01T11:31:48;3.60;;;1.00;;
8213;SDS011;4148;47.974;7.824;2023-04-01T11:34:31;1.60;;;1.10;;
8213;SDS011;4148;47.974;7.824;2023-04-01T11:37:29;2.87;;;1.10;;
8213;SDS011;4148;47.974;7.824;2023-04-01T11:40:09;4.47;;;1.50;;
8213;SDS011;4148;47.974;7.824;2023-04-01T11:42:51;3.97;;;1.67;;
8213;SDS011;4148;47.974;7.824;2023-04-01T11:45:28;2.77;;;0.90;;
8213;SDS011;4148;47.974;7.824;2023-04-01T11:51:25;3.43;;;1.20;;
8213;SDS011;4148;47.974;7.824;2023-04-01T11:54:16;2.83;;;1.23;;
8213;SDS011;4148;47.974;7.824;2023-04-01T11:57:01;2.17;;;1.10;;
8213;SDS011;4148;47.974;7.824;2023-04-01T11:59:56;2.10;;;1.10;;
8213;SDS011;4148;47.974;7.824;2023-04-01T12:02:42;3.97;;;1.00;;
8213;SDS011;4148;47.974;7.824;2023-04-01T12:05:23;2.00;;;0.93;;
8213;SDS011;4148;47.974;7.824;2023-04-01T12:08:04;3.07;;;1.00;;
8213;SDS011;4148;47.974;7.824;2023-04-01T12:10:39;1.53;;;0.97;;
8213;SDS011;4148;47.974;7.824;2023-04-01T12:13:14;2.10;;;1.00;;
8213;SDS011;4148;47.974;7.824;2023-04-01T12:15:54;3.43;;;0.90;;
8213;SDS011;4148;47.974;7.824;2023-04-01T12:18:35;1.70;;;0.90;;
8213;SDS011;4148;47.974;7.824;2023-04-01T12:21:10;2.13;;;1.07;;
8213;SDS011;4148;47.974;7.824;2023-04-01T12:24:04;3.60;;;1.17;;
8213;SDS011;4148;47.974;7.824;2023-04-01T12:26:53;3.87;;;0.83;;
8213;SDS011;4148;47.974;7.824;2023-04-01T12:29:37;1.70;;;0.90;;
8213;SDS011;4148;47.974;7.824;2023-04-01T12:32:17;2.30;;;0.97;;
8213;SDS011;4148;47.974;7.824;2023-04-01T12:34:58;1.90;;;0.90;;
8213;SDS011;4148;47.974;7.824;2023-04-01T12:37:41;2.33;;;1.00;;
8213;SDS011;4148;47.974;7.824;2023-04-01T12:40:23;1.47;;;0.90;;
8213;SDS011;4148;47.974;7.824;2023-04-01T12:43:02;2.00;;;1.10;;
8213;SDS011;4148;47.974;7.824;2023-04-01T12:45:41;4.50;;;0.97;;
8213;SDS011;4148;47.974;7.824;2023-04-01T12:48:29;2.07;;;1.00;;
8213;SDS011;4148;47.974;7.824;2023-04-01T12:54:19;1.90;;;1.00;;
8213;SDS011;4148;47.974;7.824;2023-04-01T13:00:16;1.80;;;1.00;;
8213;SDS011;4148;47.974;7.824;2023-04-01T13:03:02;1.97;;;1.10;;
8213;SDS011;4148;47.974;7.824;2023-04-01T13:08:47;4.27;;;1.10;;
8213;SDS011;4148;47.974;7.824;2023-04-01T13:11:22;3.10;;;1.10;;
8213;SDS011;4148;47.974;7.824;2023-04-01T13:17:02;1.40;;;0.73;;
8213;SDS011;4148;47.974;7.824;2023-04-01T13:19:38;3.90;;;0.80;;
8213;SDS011;4148;47.974;7.824;2023-04-01T13:22:31;1.70;;;0.90;;
8213;SDS011;4148;47.974;7.824;2023-04-01T13:25:09;2.93;;;0.90;;
8213;SDS011;4148;47.974;7.824;2023-04-01T13:27:47;2.93;;;1.20;;
8213;SDS011;4148;47.974;7.824;2023-04-01T13:30:23;2.37;;;1.10;;
8213;SDS011;4148;47.974;7.824;2023-04-01T13:32:55;2.80;;;0.90;;
8213;SDS011;4148;47.974;7.824;2023-04-01T13:35:30;2.90;;;0.83;;
8213;SDS011;4148;47.974;7.824;2023-04-01T13:38:16;2.80;;;1.00;;
8213;SDS011;4148;47.974;7.824;2023-04-01T13:40:57;1.40;;;0.90;;
8213;SDS011;4148;47.974;7.824;2023-04-01T13:43:34;1.20;;;0.70;;
8213;SDS011;4148;47.974;7.824;2023-04-01T13:46:20;2.07;;;0.87;;
8213;SDS011;4148;47.974;7.824;2023-04-01T13:49:13;3.00;;;1.10;;
8213;SDS011;4148;47.974;7.824;2023-04-01T13:51:59;1.37;;;0.90;;
8213;SDS011;4148;47.974;7.824;2023-04-01T13:54:49;2.00;;;0.90;;
8213;SDS011;4148;47.974;7.824;2023-04-01T13:57:41;2.27;;;1.60;;
8213;SDS011;4148;47.974;7.824;2023-04-01T14:00:26;1.53;;;0.87;;
8213;SDS011;4148;47.974;7.824;2023-04-01T14:03:17;3.50;;;0.90;;
8213;SDS011;4148;47.974;7.824;2023-04-01T14:11:56;1.60;;;1.13;;
8213;SDS011;4148;47.974;7.824;2023-04-01T14:14:34;2.20;;;1.00;;
8213;SDS011;4148;47.974;7.824;2023-04-01T14:17:14;2.37;;;1.00;;
8213;SDS011;4148;47.974;7.824;2023-04-01T14:20:04;1.70;;;0.90;;
8213;SDS011;4148;47.974;7.824;2023-04-01T14:22:59;2.30;;;0.90;;
8213;SDS011;4148;47.974;7.824;2023-04-01T14:25:46;1.90;;;0.80;;
8213;SDS011;4148;47.974;7.824;2023-04-01T14:28:30;1.50;;;0.90;;
8213;SDS011;4148;47.974;7.824;2023-04-01T14:31:14;4.00;;;1.67;;
8213;SDS011;4148;47.974;7.824;2023-04-01T14:33:53;1.80;;;1.10;;
8213;SDS011;4148;47.974;7.824;2023-04-01T14:36:31;3.40;;;1.10;;
8213;SDS011;4148;47.974;7.824;2023-04-01T14:39:12;3.50;;;1.93;;
8213;SDS011;4148;47.974;7.824;2023-04-01T14:41:51;8.10;;;6.83;;
8213;SDS011;4148;47.974;7.824;2023-04-01T14:47:48;4.63;;;2.77;;
8213;SDS011;4148;47.974;7.824;2023-04-01T14:50:20;2.90;;;1.57;;
8213;SDS011;4148;47.974;7.824;2023-04-01T14:52:55;2.10;;;1.40;;
8213;SDS011;4148;47.974;7.824;2023-04-01T14:55:33;2.03;;;1.20;;
8213;SDS011;4148;47.974;7.824;2023-04-01T14:58:12;2.17;;;1.20;;
8213;SDS011;4148;47.974;7.824;2023-04-01T15:00:47;2.57;;;1.10;;
8213;SDS011;4148;47.974;7.824;2023-04-01T15:03:19;2.33;;;0.90;;
8213;SDS011;4148;47.974;7.824;2023-04-01T15:05:52;2.37;;;0.90;;
8213;SDS011;4148;47.974;7.824;2023-04-01T15:08:25;2.10;;;0.83;;
8213;SDS011;4148;47.974;7.824;2023-04-01T15:11:04;1.40;;;0.60;;
8213;SDS011;4148;47.974;7.824;2023-04-01T15:14:01;2.47;;;0.80;;
8213;SDS011;4148;47.974;7.824;2023-04-01T15:16:45;1.30;;;0.80;;
8213;SDS011;4148;47.974;7.824;2023-04-01T15:19:23;1.43;;;0.90;;
8213;SDS011;4148;47.974;7.824;2023-04-01T15:22:05;1.23;;;0.73;;
8213;SDS011;4148;47.974;7.824;2023-04-01T15:25:05;1.37;;;0.60;;
8213;SDS011;4148;47.974;7.824;2023-04-01T15:27:47;2.10;;;0.80;;
8213;SDS011;4148;47.974;7.824;2023-04-01T15:30:26;1.30;;;0.80;;
8213;SDS011;4148;47.974;7.824;2023-04-01T15:35:50;1.20;;;0.70;;
8213;SDS011;4148;47.974;7.824;2023-04-01T15:38:28;3.23;;;0.90;;
8213;SDS011;4148;47.974;7.824;2023-04-01T15:41:07;4.37;;;1.70;;
8213;SDS011;4148;47.974;7.824;2023-04-01T15:43:41;3.87;;;1.00;;
8213;SDS011;4148;47.974;7.824;2023-04-01T15:49:26;3.30;;;1.00;;
8213;SDS011;4148;47.974;7.824;2023-04-01T15:52:07;1.70;;;1.00;;
8213;SDS011;4148;47.974;7.824;2023-04-01T15:54:52;2.17;;;1.00;;
8213;SDS011;4148;47.974;7.824;2023-04-01T15:57:31;1.77;;;0.83;;
8213;SDS011;4148;47.974;7.824;2023-04-01T16:00:11;1.93;;;0.90;;
8213;SDS011;4148;47.974;7.824;2023-04-01T16:03:00;2.23;;;0.80;;
8213;SDS011;4148;47.974;7.824;2023-04-01T16:06:10;2.70;;;0.93;;
8213;SDS011;4148;47.974;7.824;2023-04-01T16:09:00;2.63;;;0.90;;
8213;SDS011;4148;47.974;7.824;2023-04-01T16:11:39;3.27;;;1.80;;
8213;SDS011;4148;47.974;7.824;2023-04-01T16:14:24;1.73;;;1.00;;
8213;SDS011;4148;47.974;7.824;2023-04-01T16:17:00;1.97;;;1.00;;
8213;SDS011;4148;47.974;7.824;2023-04-01T16:19:38;1.73;;;1.13;;
8213;SDS011;4148;47.974;7.824;2023-04-01T16:22:16;3.23;;;1.13;;
8213;SDS011;4148;47.974;7.824;2023-04-01T16:24:51;1.97;;;0.80;;
8213;SDS011;4148;47.974;7.824;2023-04-01T16:27:27;3.37;;;1.20;;
8213;SDS011;4148;47.974;7.824;2023-04-01T16:30:16;1.87;;;0.83;;
8213;SDS011;4148;47.974;7.824;2023-04-01T16:32:54;1.30;;;0.70;;
8213;SDS011;4148;47.974;7.824;2023-04-01T16:35:30;3.10;;;1.00;;
8213;SDS011;4148;47.974;7.824;2023-04-01T16:38:09;2.30;;;0.90;;
8213;SDS011;4148;47.974;7.824;2023-04-01T16:40:44;1.60;;;0.80;;
8213;SDS011;4148;47.974;7.824;2023-04-01T16:43:20;2.20;;;0.90;;
8213;SDS011;4148;47.974;7.824;2023-04-01T16:45:56;1.20;;;0.80;;
8213;SDS011;4148;47.974;7.824;2023-04-01T16:48:49;2.90;;;1.00;;
8213;SDS011;4148;47.974;7.824;2023-04-01T16:51:26;2.60;;;1.13;;
8213;SDS011;4148;47.974;7.824;2023-04-01T16:54:04;2.60;;;1.00;;
8213;SDS011;4148;47.974;7.824;2023-04-01T16:56:40;2.37;;;1.00;;
8213;SDS011;4148;47.974;7.824;2023-04-01T16:59:14;1.70;;;1.10;;
8213;SDS011;4148;47.974;7.824;2023-04-01T17:01:51;1.50;;;0.70;;
8213;SDS011;4148;47.974;7.824;2023-04-01T17:04:25;2.53;;;1.10;;
8213;SDS011;4148;47.974;7.824;2023-04-01T17:07:01;1.90;;;0.97;;
8213;SDS011;4148;47.974;7.824;2023-04-01T17:09:39;2.13;;;1.30;;
8213;SDS011;4148;47.974;7.824;2023-04-01T17:12:19;2.20;;;0.90;;
8213;SDS011;4148;47.974;7.824;2023-04-01T17:14:59;1.60;;;0.90;;
8213;SDS011;4148;47.974;7.824;2023-04-01T17:17:36;3.00;;;1.20;;
8213;SDS011;4148;47.974;7.824;2023-04-01T17:20:18;2.87;;;1.17;;
8213;SDS011;4148;47.974;7.824;2023-04-01T17:23:05;4.50;;;1.20;;
8213;SDS011;4148;47.974;7.824;2023-04-01T17:25:46;1.90;;;1.10;;
8213;SDS011;4148;47.974;7.824;2023-04-01T17:28:27;3.40;;;1.20;;
8213;SDS011;4148;47.974;7.824;2023-04-01T17:31:05;2.00;;;1.10;;
8213;SDS011;4148;47.974;7.824;2023-04-01T17:33:43;2.33;;;1.00;;
8213;SDS011;4148;47.974;7.824;2023-04-01T17:42:14;3.57;;;1.33;;
8213;SDS011;4148;47.974;7.824;2023-04-01T17:44:48;2.10;;;1.00;;
8213;SDS011;4148;47.974;7.824;2023-04-01T17:47:23;2.20;;;1.00;;
8213;SDS011;4148;47.974;7.824;2023-04-01T17:50:04;2.23;;;0.90;;
8213;SDS011;4148;47.974;7.824;2023-04-01T17:52:42;2.40;;;1.10;;
8213;SDS011;4148;47.974;7.824;2023-04-01T17:58:17;2.43;;;1.30;;
8213;SDS011;4148;47.974;7.824;2023-04-01T18:00:50;1.90;;;1.00;;
8213;SDS011;4148;47.974;7.824;2023-04-01T18:03:35;3.20;;;1.30;;
8213;SDS011;4148;47.974;7.824;2023-04-01T18:06:19;2.20;;;1.30;;
8213;SDS011;4148;47.974;7.824;2023-04-01T18:08:56;3.50;;;1.73;;